Time;durP1;ratioP1;P1;durP2;ratioP2;P2;SDS_P1;SDS_P2;PMS_P1;PMS_P2;Temp;Humidity;BMP_temperature;BMP_pressure;BME280_temperature;BME280_humidity;BME280_pressure;Samples;Min_cycle;Max_cycle;Signal;HPM_P1;HPM_P2
2023/07/16 00:01:06;;;;;;;1.90;1.80;;;19.70;99.90;;;;;;5056136;28;21265;-75
2023/07/16 00:03:33;;;;;;;2.37;2.17;;;19.70;99.90;;;;;;5059037;28;20682;-75
2023/07/16 00:06:00;;;;;;;1.90;1.80;;;19.60;99.90;;;;;;5060325;28;20744;-75
2023/07/16 00:08:26;;;;;;;2.90;1.90;;;19.60;99.90;;;;;;5056463;28;21242;-75
2023/07/16 00:10:53;;;;;;;1.93;1.53;;;19.50;99.90;;;;;;5058387;28;20666;-75
2023/07/16 00:13:20;;;;;;;1.80;1.70;;;19.70;99.90;;;;;;5061414;28;20614;-75
2023/07/16 00:15:48;;;;;;;1.77;1.67;;;19.60;99.90;;;;;;5057861;28;20654;-76
2023/07/16 00:18:22;;;;;;;1.63;1.53;;;19.60;99.90;;;;;;5061146;28;20721;-75
2023/07/16 00:20:49;;;;;;;1.40;1.30;;;19.60;99.90;;;;;;5057550;28;20708;-75
2023/07/16 00:23:17;;;;;;;1.77;1.37;;;19.50;99.90;;;;;;5061163;28;20649;-75
2023/07/16 00:25:47;;;;;;;1.27;1.17;;;19.60;99.90;;;;;;5060393;28;20653;-75
2023/07/16 00:28:15;;;;;;;1.63;1.47;;;19.50;99.90;;;;;;5058576;28;21221;-76
2023/07/16 00:30:42;;;;;;;1.43;1.30;;;19.50;99.90;;;;;;5058033;28;20765;-75
2023/07/16 00:33:10;;;;;;;1.17;1.10;;;19.50;99.90;;;;;;5063065;28;20632;-75
2023/07/16 00:35:37;;;;;;;1.10;1.10;;;19.40;99.90;;;;;;5059228;28;21253;-75
2023/07/16 00:38:04;;;;;;;1.20;1.10;;;19.40;99.90;;;;;;5061175;28;21190;-75
2023/07/16 00:40:30;;;;;;;1.10;1.00;;;19.40;99.90;;;;;;5061161;28;20648;-75
2023/07/16 00:43:02;;;;;;;1.47;1.20;;;19.50;99.90;;;;;;5059972;28;20653;-75
2023/07/16 00:45:29;;;;;;;1.47;1.37;;;19.40;99.90;;;;;;5059001;28;20993;-75
2023/07/16 00:47:59;;;;;;;1.27;1.20;;;19.30;99.90;;;;;;5062426;28;20636;-75
2023/07/16 00:50:34;;;;;;;1.20;1.10;;;19.40;99.90;;;;;;5060569;28;20680;-75
2023/07/16 00:53:00;;;;;;;1.80;1.40;;;19.50;99.90;;;;;;5064615;28;20617;-75
2023/07/16 00:55:34;;;;;;;1.30;1.00;;;19.40;99.90;;;;;;5063407;28;20642;-75
2023/07/16 00:58:05;;;;;;;2.20;1.20;;;19.40;99.90;;;;;;5062664;28;20687;-75
2023/07/16 01:00:31;;;;;;;1.30;1.20;;;19.50;99.90;;;;;;5062034;28;20699;-75
2023/07/16 01:02:59;;;;;;;0.90;0.90;;;19.40;99.90;;;;;;5062656;28;20667;-75
2023/07/16 01:05:33;;;;;;;1.10;1.10;;;19.50;99.90;;;;;;5063819;28;20683;-75
2023/07/16 01:08:08;;;;;;;1.30;1.20;;;19.30;99.90;;;;;;5064252;28;21040;-75
2023/07/16 01:10:34;;;;;;;1.30;1.20;;;19.30;99.90;;;;;;5063112;28;20741;-75
2023/07/16 01:13:03;;;;;;;1.17;1.07;;;19.40;99.90;;;;;;5062724;28;21041;-75
2023/07/16 01:15:32;;;;;;;0.90;0.90;;;19.40;99.90;;;;;;5062073;28;20644;-75
2023/07/16 01:18:04;;;;;;;1.30;1.20;;;19.30;99.90;;;;;;5063188;28;20992;-75
2023/07/16 01:20:33;;;;;;;0.87;0.80;;;19.20;99.90;;;;;;5062671;28;20645;-75
2023/07/16 01:23:28;;;;;;;0.90;0.90;;;19.20;99.90;;;;;;5063460;28;20707;-75
2023/07/16 01:26:07;;;;;;;1.17;1.07;;;19.20;99.90;;;;;;5060890;28;20753;-75
2023/07/16 01:29:08;;;;;;;0.80;0.80;;;19.20;99.90;;;;;;5058692;28;20635;-75
2023/07/16 01:31:37;;;;;;;1.17;1.13;;;19.10;99.90;;;;;;5055402;28;20738;-75
2023/07/16 01:34:07;;;;;;;1.03;0.93;;;19.10;99.90;;;;;;5062637;28;20980;-75
2023/07/16 01:36:37;;;;;;;1.07;0.97;;;19.10;99.90;;;;;;5065185;28;20680;-75
2023/07/16 01:39:06;;;;;;;1.20;1.10;;;19.00;99.90;;;;;;5060872;28;20619;-75
2023/07/16 01:41:35;;;;;;;1.70;1.30;;;18.90;99.90;;;;;;5062777;28;20670;-75
2023/07/16 01:44:03;;;;;;;1.20;1.10;;;18.70;99.90;;;;;;5060381;28;20641;-75
2023/07/16 01:46:30;;;;;;;1.23;1.00;;;18.60;99.90;;;;;;5058290;28;21249;-75
2023/07/16 01:49:02;;;;;;;1.10;1.00;;;18.60;99.90;;;;;;5057912;28;20623;-75
2023/07/16 01:51:30;;;;;;;1.03;0.93;;;18.50;99.90;;;;;;5062152;28;20644;-75
2023/07/16 01:53:57;;;;;;;1.10;0.83;;;18.60;99.90;;;;;;5064548;28;20669;-75
2023/07/16 01:56:25;;;;;;;1.37;1.27;;;18.60;99.90;;;;;;5062681;28;21282;-75
2023/07/16 01:58:55;;;;;;;1.30;1.20;;;18.50;99.90;;;;;;5057947;28;20621;-75
2023/07/16 02:01:25;;;;;;;1.70;1.27;;;18.50;99.90;;;;;;5053949;28;20666;-75
2023/07/16 02:03:53;;;;;;;1.07;0.97;;;18.40;99.90;;;;;;5060060;28;20644;-75
2023/07/16 02:06:24;;;;;;;0.90;0.90;;;18.50;99.90;;;;;;5056060;28;20704;-75
2023/07/16 02:08:51;;;;;;;1.80;1.00;;;18.30;99.90;;;;;;5060046;28;20645;-75
2023/07/16 02:11:19;;;;;;;1.70;1.60;;;18.40;99.90;;;;;;5063449;28;20653;-75
2023/07/16 02:13:47;;;;;;;0.80;0.80;;;18.40;99.90;;;;;;5063040;28;20634;-75
2023/07/16 02:16:13;;;;;;;1.00;1.00;;;18.40;99.90;;;;;;5063648;28;20648;-74
2023/07/16 02:18:40;;;;;;;1.40;1.30;;;18.40;99.90;;;;;;5061408;28;20688;-75
2023/07/16 02:21:07;;;;;;;0.80;0.77;;;18.30;99.90;;;;;;5054304;28;21295;-75
2023/07/16 02:23:35;;;;;;;1.10;0.93;;;18.30;99.90;;;;;;5062460;28;21249;-75
2023/07/16 02:26:02;;;;;;;1.17;1.07;;;18.30;99.90;;;;;;5055168;28;20648;-75
2023/07/16 02:28:29;;;;;;;0.70;0.70;;;18.30;99.90;;;;;;5059476;28;20626;-75
2023/07/16 02:30:57;;;;;;;2.53;1.00;;;18.20;99.90;;;;;;5063455;28;20649;-75
2023/07/16 02:33:24;;;;;;;1.27;0.83;;;18.30;99.90;;;;;;5062574;28;21343;-75
2023/07/16 02:35:52;;;;;;;1.17;1.13;;;18.20;99.90;;;;;;5063750;28;20646;-75
2023/07/16 02:38:20;;;;;;;2.20;1.20;;;18.10;99.90;;;;;;5062960;28;20632;-75
2023/07/16 02:40:49;;;;;;;1.50;1.10;;;18.00;99.90;;;;;;5068035;28;21231;-75
2023/07/16 02:43:16;;;;;;;0.80;0.80;;;18.00;99.90;;;;;;5063545;28;21256;-75
2023/07/16 02:45:45;;;;;;;2.70;1.30;;;18.10;99.90;;;;;;5062073;28;20645;-75
2023/07/16 02:48:12;;;;;;;1.60;1.43;;;18.10;99.90;;;;;;5061059;28;21093;-75
2023/07/16 02:50:39;;;;;;;1.60;1.10;;;18.00;99.90;;;;;;5067415;28;21193;-75
2023/07/16 02:53:07;;;;;;;0.80;0.80;;;18.10;99.90;;;;;;5067389;28;20631;-75
2023/07/16 02:55:36;;;;;;;0.93;0.93;;;18.00;99.90;;;;;;5067242;28;20650;-75
2023/07/16 02:58:05;;;;;;;0.93;0.83;;;17.90;99.90;;;;;;5064132;28;21052;-75
2023/07/16 03:00:34;;;;;;;0.87;0.87;;;17.70;99.90;;;;;;5060719;28;20731;-75
2023/07/16 03:03:04;;;;;;;0.97;0.97;;;17.60;99.90;;;;;;5067273;28;20654;-74
2023/07/16 03:05:31;;;;;;;2.17;1.13;;;17.60;99.90;;;;;;5069259;28;20676;-75
2023/07/16 03:07:59;;;;;;;1.30;1.10;;;17.50;99.90;;;;;;5066709;28;21056;-75
2023/07/16 03:10:27;;;;;;;0.90;0.90;;;17.50;99.90;;;;;;5066751;28;20638;-74
2023/07/16 03:12:55;;;;;;;1.20;1.10;;;17.60;99.90;;;;;;5064373;28;21249;-75
2023/07/16 03:15:24;;;;;;;1.57;1.33;;;17.50;99.90;;;;;;5062348;28;20658;-75
2023/07/16 03:17:51;;;;;;;1.03;1.03;;;17.40;99.90;;;;;;5067316;28;20640;-75
2023/07/16 03:20:18;;;;;;;1.27;1.17;;;17.40;99.90;;;;;;5065973;28;20726;-74
2023/07/16 03:22:44;;;;;;;1.10;1.00;;;17.50;99.90;;;;;;5067887;28;20691;-75
2023/07/16 03:25:11;;;;;;;1.10;1.00;;;17.60;99.90;;;;;;5066537;28;20683;-75
2023/07/16 03:27:38;;;;;;;0.80;0.80;;;17.60;99.90;;;;;;5068391;28;21030;-75
2023/07/16 03:30:06;;;;;;;1.70;1.20;;;17.70;99.90;;;;;;5064425;28;20652;-75
2023/07/16 03:32:35;;;;;;;1.40;1.30;;;17.80;99.90;;;;;;5067328;28;20715;-74
2023/07/16 03:35:01;;;;;;;1.20;1.10;;;17.70;99.90;;;;;;5067315;28;20737;-75
2023/07/16 03:37:30;;;;;;;1.40;1.10;;;17.70;99.90;;;;;;5068543;28;20622;-75
2023/07/16 03:39:58;;;;;;;0.97;0.90;;;17.70;99.90;;;;;;5067440;28;20633;-75
2023/07/16 03:42:26;;;;;;;0.97;0.90;;;17.60;99.90;;;;;;5066759;28;21234;-75
2023/07/16 03:44:54;;;;;;;1.63;1.30;;;17.40;99.90;;;;;;5062372;28;21261;-75
2023/07/16 03:47:21;;;;;;;3.43;1.47;;;17.50;99.90;;;;;;5066391;28;21046;-74
2023/07/16 03:49:49;;;;;;;1.10;1.00;;;17.50;99.90;;;;;;5067304;28;20711;-75
2023/07/16 03:52:16;;;;;;;2.27;1.57;;;17.50;99.90;;;;;;5067737;28;20664;-75
2023/07/16 03:54:43;;;;;;;1.40;1.20;;;17.60;99.90;;;;;;5068513;28;20613;-75
2023/07/16 03:57:10;;;;;;;1.53;1.43;;;17.60;99.90;;;;;;5068272;28;21036;-75
2023/07/16 03:59:37;;;;;;;0.90;0.90;;;17.50;99.90;;;;;;5059033;28;20623;-75
2023/07/16 04:02:03;;;;;;;1.57;1.47;;;17.60;99.90;;;;;;5062313;28;20662;-74
2023/07/16 04:04:30;;;;;;;0.97;0.97;;;17.50;99.90;;;;;;5062798;28;20654;-75
2023/07/16 04:06:58;;;;;;;1.20;0.80;;;17.40;99.90;;;;;;5067919;28;21042;-75
2023/07/16 04:09:25;;;;;;;1.40;1.10;;;17.30;99.90;;;;;;5067192;28;20618;-74
2023/07/16 04:11:52;;;;;;;1.83;1.17;;;17.30;99.90;;;;;;5065599;28;20652;-74
2023/07/16 04:14:19;;;;;;;1.37;1.30;;;17.30;99.90;;;;;;5062277;28;20621;-74
2023/07/16 04:16:45;;;;;;;1.90;1.20;;;17.20;99.90;;;;;;5064283;28;20652;-75
2023/07/16 04:19:13;;;;;;;1.40;1.30;;;17.30;99.90;;;;;;5065397;28;20632;-74
2023/07/16 04:21:40;;;;;;;1.37;1.27;;;17.30;99.90;;;;;;5060032;28;20702;-75
2023/07/16 04:24:08;;;;;;;1.40;1.30;;;17.30;99.90;;;;;;5065803;28;20994;-74
2023/07/16 04:26:35;;;;;;;0.70;0.70;;;17.40;99.90;;;;;;5061461;28;20687;-75
2023/07/16 04:29:02;;;;;;;1.13;1.13;;;17.50;99.90;;;;;;5061060;28;20717;-74
2023/07/16 04:31:29;;;;;;;1.53;1.33;;;17.60;99.90;;;;;;5060826;28;20669;-74
2023/07/16 04:33:55;;;;;;;1.90;1.47;;;17.40;99.90;;;;;;5063788;28;20650;-74
2023/07/16 04:36:22;;;;;;;1.13;1.13;;;17.30;99.90;;;;;;5067401;28;21045;-75
2023/07/16 04:38:49;;;;;;;1.57;1.30;;;17.40;99.90;;;;;;5059875;28;21148;-74
2023/07/16 04:41:18;;;;;;;1.50;1.17;;;17.40;99.90;;;;;;5067868;28;20656;-74
2023/07/16 04:43:45;;;;;;;1.90;1.80;;;17.40;99.90;;;;;;5065567;28;21210;-74
2023/07/16 04:46:12;;;;;;;1.33;1.20;;;17.40;99.90;;;;;;5067846;28;20669;-75
2023/07/16 04:48:38;;;;;;;0.80;0.80;;;17.50;99.90;;;;;;5064515;28;20628;-75
2023/07/16 04:51:05;;;;;;;1.40;1.17;;;17.50;99.90;;;;;;5066587;28;20657;-75
2023/07/16 04:53:32;;;;;;;1.93;1.57;;;17.40;99.90;;;;;;5064874;28;21332;-75
2023/07/16 04:55:59;;;;;;;1.20;1.10;;;17.30;99.90;;;;;;5061226;28;20650;-75
2023/07/16 04:58:27;;;;;;;1.80;1.50;;;17.30;99.90;;;;;;5067178;28;20618;-74
2023/07/16 05:00:54;;;;;;;1.40;1.30;;;17.30;99.90;;;;;;5061838;28;21248;-75
2023/07/16 05:03:20;;;;;;;2.07;0.90;;;17.20;99.90;;;;;;5066715;28;20646;-74
2023/07/16 05:05:47;;;;;;;1.43;1.13;;;17.20;99.90;;;;;;5058320;28;20656;-74
2023/07/16 05:08:14;;;;;;;1.03;0.90;;;17.30;99.90;;;;;;5067628;28;20965;-75
2023/07/16 05:10:41;;;;;;;2.67;1.30;;;17.30;99.90;;;;;;5054180;28;21233;-74
2023/07/16 05:13:07;;;;;;;2.70;1.53;;;17.40;99.90;;;;;;5057615;28;21201;-75
2023/07/16 05:15:36;;;;;;;0.93;0.93;;;17.30;99.90;;;;;;5060449;28;20652;-75
2023/07/16 05:18:02;;;;;;;1.43;0.90;;;17.40;99.90;;;;;;5059064;28;20625;-74
2023/07/16 05:20:30;;;;;;;1.00;1.00;;;17.30;99.90;;;;;;5065410;28;21217;-75
2023/07/16 05:22:56;;;;;;;1.80;1.10;;;17.40;99.90;;;;;;5066233;28;20646;-75
2023/07/16 05:25:23;;;;;;;1.53;1.40;;;17.40;99.90;;;;;;5066989;28;20657;-74
2023/07/16 05:27:50;;;;;;;4.70;1.37;;;17.50;99.90;;;;;;5062309;28;20634;-74
2023/07/16 05:30:17;;;;;;;1.30;1.23;;;17.50;99.90;;;;;;5058753;28;20642;-75
2023/07/16 05:32:45;;;;;;;1.40;1.30;;;17.50;99.90;;;;;;5064538;28;20631;-74
2023/07/16 05:35:15;;;;;;;1.50;1.40;;;17.50;99.90;;;;;;5069522;28;20628;-74
2023/07/16 05:37:41;;;;;;;1.40;1.30;;;17.50;99.90;;;;;;5065059;28;20648;-75
2023/07/16 05:40:09;;;;;;;1.60;1.40;;;17.70;99.90;;;;;;5069648;28;20967;-75
2023/07/16 05:42:36;;;;;;;5.43;1.40;;;17.70;99.90;;;;;;5061775;28;20637;-75
2023/07/16 05:45:03;;;;;;;1.27;1.17;;;17.70;99.90;;;;;;5064875;28;20787;-75
2023/07/16 05:47:30;;;;;;;1.30;1.20;;;17.80;99.90;;;;;;5065312;28;20629;-74
2023/07/16 05:49:58;;;;;;;1.20;1.20;;;17.90;99.90;;;;;;5060754;28;20988;-74
2023/07/16 05:52:25;;;;;;;2.10;1.63;;;18.00;99.90;;;;;;5067555;28;21001;-75
2023/07/16 05:54:51;;;;;;;1.63;1.10;;;18.10;99.90;;;;;;5059100;28;20626;-75
2023/07/16 05:57:18;;;;;;;2.53;1.27;;;18.10;99.90;;;;;;5067434;28;20649;-75
2023/07/16 05:59:45;;;;;;;2.13;1.80;;;18.10;99.90;;;;;;5066410;28;20728;-74
2023/07/16 06:02:12;;;;;;;3.83;1.60;;;18.10;99.90;;;;;;5064699;28;20657;-74
2023/07/16 06:04:38;;;;;;;1.70;1.60;;;18.00;99.90;;;;;;5067495;28;20646;-74
2023/07/16 06:07:07;;;;;;;1.33;1.23;;;17.90;99.90;;;;;;5063151;28;20658;-74
2023/07/16 06:09:34;;;;;;;1.33;1.03;;;17.90;99.90;;;;;;5065432;28;20991;-74
2023/07/16 06:12:01;;;;;;;1.43;1.33;;;17.90;99.90;;;;;;5066925;28;20649;-75
2023/07/16 06:14:28;;;;;;;5.90;1.50;;;17.90;99.90;;;;;;5068932;28;21257;-74
2023/07/16 06:16:55;;;;;;;1.60;1.50;;;17.90;99.90;;;;;;5063591;28;21233;-75
2023/07/16 06:19:22;;;;;;;2.73;1.50;;;17.90;99.90;;;;;;5063897;28;21138;-74
2023/07/16 06:21:48;;;;;;;2.17;1.37;;;17.90;99.90;;;;;;5063973;28;21253;-75
2023/07/16 06:24:16;;;;;;;1.60;1.47;;;18.00;99.90;;;;;;5065798;28;21256;-74
2023/07/16 06:26:44;;;;;;;1.13;1.00;;;18.10;99.90;;;;;;5069253;28;21102;-75
2023/07/16 06:29:11;;;;;;;1.27;1.27;;;17.90;99.90;;;;;;5061887;28;20636;-74
2023/07/16 06:31:37;;;;;;;2.50;1.43;;;18.00;99.90;;;;;;5068361;28;20756;-74
2023/07/16 06:34:04;;;;;;;1.83;1.73;;;18.10;99.90;;;;;;5067313;28;20724;-75
2023/07/16 06:36:31;;;;;;;1.10;1.00;;;18.10;99.90;;;;;;5060516;28;21243;-74
2023/07/16 06:39:00;;;;;;;1.47;1.37;;;18.20;99.90;;;;;;5063673;28;21178;-74
2023/07/16 06:41:30;;;;;;;1.40;1.30;;;18.30;99.90;;;;;;5062344;28;20657;-75
2023/07/16 06:43:56;;;;;;;1.10;1.00;;;18.20;99.90;;;;;;5066061;28;20646;-75
2023/07/16 06:46:23;;;;;;;2.05;1.80;;;18.30;99.90;;;;;;5067831;28;20746;-75
2023/07/16 06:48:50;;;;;;;6.00;2.47;;;18.30;99.90;;;;;;5068281;28;20214;-75
2023/07/16 06:51:17;;;;;;;1.60;1.50;;;18.30;99.90;;;;;;5068482;28;20661;-75
2023/07/16 06:53:43;;;;;;;1.87;1.53;;;18.20;99.90;;;;;;5061007;28;21208;-75
2023/07/16 06:56:10;;;;;;;3.13;1.00;;;18.00;99.90;;;;;;5062035;28;20764;-76
2023/07/16 06:58:38;;;;;;;1.93;1.40;;;18.10;99.90;;;;;;5064428;28;20772;-75
2023/07/16 07:01:05;;;;;;;1.53;1.43;;;18.30;99.90;;;;;;5067513;28;20657;-75
2023/07/16 07:03:33;;;;;;;1.20;1.07;;;18.30;99.90;;;;;;5068246;28;20748;-76
2023/07/16 07:06:02;;;;;;;1.60;1.50;;;18.40;99.90;;;;;;5060685;28;20664;-75
2023/07/16 07:08:29;;;;;;;1.57;1.47;;;18.60;99.90;;;;;;5064059;28;20748;-75
2023/07/16 07:10:56;;;;;;;1.97;1.23;;;18.90;99.90;;;;;;5060792;28;21229;-75
2023/07/16 07:13:23;;;;;;;1.60;1.40;;;18.90;99.90;;;;;;5065198;28;20636;-76
2023/07/16 07:15:51;;;;;;;4.20;1.83;;;18.80;99.90;;;;;;5062826;28;20661;-75
2023/07/16 07:18:18;;;;;;;5.37;1.47;;;19.10;99.90;;;;;;5068264;28;20625;-76
2023/07/16 07:20:44;;;;;;;1.30;1.20;;;18.80;99.90;;;;;;5062619;28;20646;-75
2023/07/16 07:23:11;;;;;;;1.00;0.80;;;18.80;99.90;;;;;;5063437;28;20632;-76
2023/07/16 07:25:38;;;;;;;1.80;1.43;;;18.80;99.90;;;;;;5064639;28;20908;-76
2023/07/16 07:28:05;;;;;;;1.70;1.60;;;19.00;99.90;;;;;;5060280;28;20633;-76
2023/07/16 07:30:32;;;;;;;1.77;1.13;;;18.80;99.90;;;;;;5061128;28;20656;-76
2023/07/16 07:33:00;;;;;;;2.23;1.20;;;19.00;99.90;;;;;;5054408;28;20646;-76
2023/07/16 07:35:26;;;;;;;1.40;1.30;;;19.30;99.90;;;;;;5058384;28;20662;-76
2023/07/16 07:37:53;;;;;;;2.57;1.40;;;19.50;99.90;;;;;;5050597;28;20626;-76
2023/07/16 07:40:20;;;;;;;1.50;1.40;;;19.60;99.90;;;;;;5063840;28;20629;-76
2023/07/16 07:42:47;;;;;;;1.80;1.23;;;19.70;99.90;;;;;;5065084;28;20626;-75
2023/07/16 07:45:14;;;;;;;3.47;1.40;;;19.70;99.90;;;;;;5063552;28;20654;-75
2023/07/16 07:47:40;;;;;;;1.93;1.40;;;19.50;99.90;;;;;;5059412;28;20997;-76
2023/07/16 07:50:10;;;;;;;1.50;1.40;;;19.50;99.90;;;;;;5054858;28;20626;-75
2023/07/16 07:52:36;;;;;;;1.93;1.40;;;19.60;99.90;;;;;;5060928;28;20624;-75
2023/07/16 07:55:04;;;;;;;1.50;1.10;;;19.70;99.90;;;;;;5058790;28;20637;-75
2023/07/16 07:57:30;;;;;;;2.30;1.67;;;19.90;99.90;;;;;;5065676;28;20632;-76
2023/07/16 07:59:57;;;;;;;1.30;1.20;;;19.90;99.90;;;;;;5064601;28;20640;-75
2023/07/16 08:02:25;;;;;;;3.23;1.70;;;20.00;99.90;;;;;;5064456;28;21235;-75
2023/07/16 08:04:52;;;;;;;2.40;1.20;;;20.00;99.90;;;;;;5057019;28;21176;-75
2023/07/16 08:07:20;;;;;;;1.53;1.00;;;20.00;99.90;;;;;;5065329;28;20676;-75
2023/07/16 08:09:47;;;;;;;1.40;1.30;;;20.10;99.90;;;;;;5056584;28;20627;-75
2023/07/16 08:12:14;;;;;;;1.60;1.30;;;19.90;99.90;;;;;;5068042;28;20644;-75
2023/07/16 08:14:42;;;;;;;4.53;1.90;;;20.10;99.90;;;;;;5062667;28;20737;-75
2023/07/16 08:17:09;;;;;;;3.33;1.63;;;20.40;99.90;;;;;;5055984;28;21047;-75
2023/07/16 08:19:36;;;;;;;2.23;1.40;;;20.50;99.80;;;;;;5063284;28;21789;-75
2023/07/16 08:22:02;;;;;;;1.40;1.30;;;20.30;97.30;;;;;;5066000;28;20978;-75
2023/07/16 08:24:30;;;;;;;1.63;1.53;;;20.50;98.60;;;;;;5064473;28;20654;-75
2023/07/16 08:26:57;;;;;;;1.30;1.10;;;20.60;97.90;;;;;;5064361;28;20645;-75
2023/07/16 08:29:24;;;;;;;2.67;1.67;;;20.40;96.40;;;;;;5066259;28;20629;-75
2023/07/16 08:31:51;;;;;;;1.40;1.30;;;20.30;97.70;;;;;;5060222;28;21560;-75
2023/07/16 08:34:18;;;;;;;1.07;0.97;;;20.30;96.00;;;;;;5060213;28;20630;-75
2023/07/16 08:36:45;;;;;;;2.63;1.10;;;20.60;97.60;;;;;;5061021;28;20753;-75
2023/07/16 08:39:12;;;;;;;1.40;1.30;;;20.60;97.20;;;;;;5064201;28;20633;-77
2023/07/16 08:41:40;;;;;;;3.40;1.20;;;20.50;95.70;;;;;;5062478;28;21240;-77
2023/07/16 08:44:07;;;;;;;1.30;1.20;;;20.40;96.00;;;;;;5053377;28;20654;-78
2023/07/16 08:46:34;;;;;;;2.90;1.03;;;20.60;96.40;;;;;;5065382;28;21214;-77
2023/07/16 08:49:02;;;;;;;2.40;1.20;;;20.50;96.20;;;;;;5060976;28;20718;-78
2023/07/16 08:51:31;;;;;;;1.63;1.27;;;20.50;96.50;;;;;;5065179;28;20765;-78
2023/07/16 08:53:57;;;;;;;7.13;1.50;;;20.60;97.10;;;;;;5064929;28;20636;-77
2023/07/16 08:56:25;;;;;;;1.70;1.50;;;20.80;96.70;;;;;;5067010;28;21213;-77
2023/07/16 08:58:56;;;;;;;1.60;1.00;;;20.80;94.70;;;;;;5059921;28;20967;-76
2023/07/16 09:01:23;;;;;;;4.40;1.50;;;21.20;94.40;;;;;;5063841;28;20653;-78
2023/07/16 09:03:50;;;;;;;5.20;1.60;;;21.60;93.50;;;;;;5061104;28;20630;-78
2023/07/16 09:06:17;;;;;;;1.17;1.03;;;21.60;93.80;;;;;;5067284;28;21112;-78
2023/07/16 09:08:43;;;;;;;1.40;1.30;;;21.50;92.00;;;;;;5067001;28;20639;-77
2023/07/16 09:11:13;;;;;;;2.70;1.40;;;21.80;93.80;;;;;;5071196;28;20876;-78
2023/07/16 09:13:45;;;;;;;1.20;1.10;;;21.60;90.80;;;;;;5062989;28;20625;-78
2023/07/16 09:16:16;;;;;;;2.17;1.20;;;21.60;91.00;;;;;;5069465;28;20663;-78
2023/07/16 09:18:43;;;;;;;2.23;1.40;;;21.70;90.80;;;;;;5069381;28;20964;-77
2023/07/16 09:21:10;;;;;;;1.20;1.10;;;21.70;92.20;;;;;;5063681;28;20647;-78
2023/07/16 09:23:37;;;;;;;3.43;1.60;;;21.40;88.30;;;;;;5070008;28;20641;-79
2023/07/16 09:26:04;;;;;;;5.33;1.50;;;21.50;89.70;;;;;;5070204;28;20670;-78
2023/07/16 09:28:32;;;;;;;1.27;1.17;;;21.50;91.10;;;;;;5066387;28;20981;-78
2023/07/16 09:31:05;;;;;;;1.30;1.20;;;21.50;91.00;;;;;;5068400;28;20722;-78
2023/07/16 09:33:34;;;;;;;1.30;1.27;;;21.90;91.80;;;;;;5060720;28;20615;-78
2023/07/16 09:36:02;;;;;;;3.93;1.50;;;22.30;91.30;;;;;;5061238;28;20644;-78
2023/07/16 09:38:30;;;;;;;1.47;1.20;;;22.10;87.40;;;;;;5068443;28;20627;-79
2023/07/16 09:40:58;;;;;;;3.00;1.00;;;21.90;90.10;;;;;;5067371;28;20745;-79
2023/07/16 09:43:25;;;;;;;1.10;1.00;;;22.00;91.00;;;;;;5067940;28;20660;-79
2023/07/16 09:45:52;;;;;;;1.57;1.40;;;22.20;90.30;;;;;;5069777;28;20758;-80
2023/07/16 09:48:18;;;;;;;1.43;1.33;;;22.30;91.90;;;;;;5068680;28;20631;-79
2023/07/16 09:50:54;;;;;;;1.20;1.10;;;22.40;89.80;;;;;;5065846;28;20659;-79
2023/07/16 09:53:22;;;;;;;0.90;0.90;;;22.30;89.30;;;;;;5063490;28;20632;-79
2023/07/16 09:55:50;;;;;;;1.17;1.07;;;22.30;87.90;;;;;;5069939;28;20994;-79
2023/07/16 09:58:19;;;;;;;2.63;1.43;;;22.30;90.60;;;;;;5069363;28;20634;-78
2023/07/16 10:00:48;;;;;;;1.53;1.43;;;22.10;87.70;;;;;;5063170;28;20882;-79
2023/07/16 10:03:16;;;;;;;1.10;1.10;;;22.00;90.10;;;;;;5059422;28;21197;-79
2023/07/16 10:05:49;;;;;;;1.10;1.00;;;22.10;89.30;;;;;;5059255;28;20668;-79
2023/07/16 10:08:20;;;;;;;1.83;1.73;;;22.30;90.70;;;;;;5062779;28;20751;-79
2023/07/16 10:10:51;;;;;;;2.03;1.33;;;22.10;87.50;;;;;;5064827;28;21010;-78
2023/07/16 10:13:22;;;;;;;1.47;1.37;;;21.90;87.30;;;;;;5063739;28;20674;-78
2023/07/16 10:15:54;;;;;;;3.27;1.20;;;22.00;90.00;;;;;;5061249;28;20743;-79
2023/07/16 10:18:25;;;;;;;1.67;1.50;;;22.30;88.90;;;;;;5059790;28;21067;-79
2023/07/16 10:20:53;;;;;;;1.93;1.50;;;22.50;88.70;;;;;;5065321;28;20653;-79
2023/07/16 10:23:20;;;;;;;1.30;1.20;;;23.10;86.80;;;;;;5062331;28;20718;-79
2023/07/16 10:25:59;;;;;;;5.57;1.57;;;23.40;86.10;;;;;;5064210;28;20666;-79
2023/07/16 10:28:26;;;;;;;3.90;1.30;;;23.20;87.80;;;;;;5059428;28;20710;-79
2023/07/16 10:30:53;;;;;;;1.47;1.47;;;23.30;84.70;;;;;;5063597;28;20649;-79
2023/07/16 10:33:20;;;;;;;2.03;1.90;;;23.30;83.80;;;;;;5067894;28;20968;-79
2023/07/16 10:35:47;;;;;;;1.30;1.20;;;23.30;83.00;;;;;;5060877;28;20651;-79
2023/07/16 10:38:15;;;;;;;2.30;1.50;;;23.30;86.70;;;;;;5059404;28;20628;-79
2023/07/16 10:40:43;;;;;;;1.80;1.70;;;23.70;84.50;;;;;;5067176;28;20652;-78
2023/07/16 10:43:10;;;;;;;1.10;1.10;;;23.90;79.10;;;;;;5059234;28;20631;-79
2023/07/16 10:45:36;;;;;;;1.30;1.13;;;24.20;80.70;;;;;;5066288;28;20660;-79
2023/07/16 10:48:04;;;;;;;2.20;1.37;;;24.50;80.80;;;;;;5062745;28;21007;-78
2023/07/16 10:50:33;;;;;;;1.40;1.30;;;24.70;81.10;;;;;;5064235;28;20649;-78
2023/07/16 10:53:00;;;;;;;1.73;1.60;;;24.80;74.00;;;;;;5065120;28;20629;-80
2023/07/16 10:55:31;;;;;;;2.00;1.30;;;24.80;77.00;;;;;;5059160;28;20671;-79
2023/07/16 10:57:58;;;;;;;1.63;1.53;;;25.20;77.60;;;;;;5063991;28;20623;-79
2023/07/16 11:00:25;;;;;;;1.40;1.30;;;25.50;77.60;;;;;;5068592;28;20657;-79
2023/07/16 11:02:52;;;;;;;1.80;1.33;;;25.60;77.60;;;;;;5061761;28;20633;-77
2023/07/16 11:05:20;;;;;;;1.40;1.30;;;25.90;72.10;;;;;;5063373;28;20651;-78
2023/07/16 11:07:48;;;;;;;1.90;1.70;;;26.10;70.60;;;;;;5059704;28;20643;-77
2023/07/16 11:10:16;;;;;;;2.83;1.40;;;26.10;75.40;;;;;;5062776;28;20637;-78
2023/07/16 11:12:45;;;;;;;1.93;1.60;;;26.20;69.20;;;;;;5059065;28;20632;-77
2023/07/16 11:15:12;;;;;;;2.00;1.70;;;26.40;72.10;;;;;;5054999;28;20656;-78
2023/07/16 11:17:40;;;;;;;2.30;1.57;;;26.60;72.90;;;;;;5061413;28;20621;-78
2023/07/16 11:20:10;;;;;;;1.40;1.30;;;26.70;70.50;;;;;;5062017;28;20664;-77
2023/07/16 11:22:39;;;;;;;4.10;1.60;;;26.70;69.80;;;;;;5055672;28;20691;-77
2023/07/16 11:25:12;;;;;;;2.33;1.90;;;26.80;69.50;;;;;;5062537;28;21203;-78
2023/07/16 11:27:42;;;;;;;1.45;1.30;;;27.10;65.20;;;;;;5065218;28;21345;-77
2023/07/16 11:30:11;;;;;;;1.90;1.20;;;27.30;71.60;;;;;;5062974;28;20202;-77
2023/07/16 11:32:42;;;;;;;1.47;1.37;;;27.70;64.70;;;;;;5066659;28;20643;-77
2023/07/16 11:35:10;;;;;;;1.70;1.50;;;27.70;65.40;;;;;;5061567;28;21001;-78
2023/07/16 11:37:37;;;;;;;1.80;1.50;;;27.60;62.10;;;;;;5066850;28;20634;-78
2023/07/16 11:40:05;;;;;;;1.43;1.33;;;27.70;62.60;;;;;;5064275;28;20633;-78
2023/07/16 11:42:33;;;;;;;1.37;1.27;;;27.90;61.80;;;;;;5066100;28;20633;-77
2023/07/16 11:45:01;;;;;;;2.03;1.70;;;27.60;62.60;;;;;;5055309;28;20655;-78
2023/07/16 11:47:29;;;;;;;2.17;1.77;;;28.10;62.90;;;;;;5061967;28;20925;-78
2023/07/16 11:49:58;;;;;;;1.60;1.50;;;28.80;60.40;;;;;;5061098;28;20666;-77
2023/07/16 11:52:26;;;;;;;1.30;1.20;;;28.70;58.80;;;;;;5067094;28;20707;-77
2023/07/16 11:54:53;;;;;;;2.30;1.63;;;28.60;59.80;;;;;;5066638;28;20631;-77
2023/07/16 11:57:20;;;;;;;1.03;1.03;;;28.30;57.60;;;;;;5064447;28;20654;-78
2023/07/16 11:59:47;;;;;;;1.20;1.10;;;28.50;59.70;;;;;;5061996;28;20633;-78
2023/07/16 12:02:14;;;;;;;1.77;1.67;;;29.50;59.30;;;;;;5060959;28;20651;-77
2023/07/16 12:04:45;;;;;;;1.33;1.23;;;30.50;57.00;;;;;;5055892;28;20633;-77
2023/07/16 12:07:11;;;;;;;2.23;1.60;;;30.70;56.50;;;;;;5051259;28;20741;-77
2023/07/16 12:09:38;;;;;;;1.13;1.07;;;30.20;55.90;;;;;;5059074;28;20626;-78
2023/07/16 12:12:07;;;;;;;1.60;1.50;;;29.70;55.80;;;;;;5058023;28;21274;-78
2023/07/16 12:14:42;;;;;;;1.30;1.30;;;29.90;57.40;;;;;;5062833;28;21054;-78
2023/07/16 12:17:09;;;;;;;1.67;1.57;;;30.60;55.20;;;;;;5064462;28;20668;-77
2023/07/16 12:19:36;;;;;;;1.30;1.20;;;32.00;56.10;;;;;;5056692;28;20656;-76
2023/07/16 12:22:05;;;;;;;1.50;1.40;;;32.60;51.90;;;;;;5059409;28;20641;-78
2023/07/16 12:24:31;;;;;;;1.30;1.20;;;33.10;52.40;;;;;;5063566;28;20649;-77
2023/07/16 12:26:58;;;;;;;0.90;0.90;;;32.20;49.70;;;;;;5053810;28;20665;-77
2023/07/16 12:29:25;;;;;;;1.80;1.40;;;32.10;50.50;;;;;;5063150;28;20954;-77
2023/07/16 12:31:52;;;;;;;1.20;1.10;;;32.00;50.20;;;;;;5065143;28;20669;-77
2023/07/16 12:34:19;;;;;;;1.50;1.40;;;31.30;50.00;;;;;;5065584;28;20728;-78
2023/07/16 12:36:45;;;;;;;3.50;1.40;;;32.10;53.90;;;;;;5057421;28;20982;-77
2023/07/16 12:39:13;;;;;;;2.23;1.30;;;33.00;52.00;;;;;;5061819;28;21178;-77
2023/07/16 12:41:40;;;;;;;1.23;1.13;;;34.40;50.10;;;;;;5065185;28;20650;-77
2023/07/16 12:44:07;;;;;;;1.33;1.23;;;34.00;49.50;;;;;;5057539;28;20628;-77
2023/07/16 12:46:34;;;;;;;1.70;1.60;;;33.40;49.60;;;;;;5065261;28;20771;-77
2023/07/16 12:49:01;;;;;;;1.37;1.20;;;32.20;50.60;;;;;;5060704;28;20636;-77
2023/07/16 12:51:27;;;;;;;1.20;1.10;;;31.40;51.80;;;;;;5056586;28;20661;-77